Latest Weather Observations for Mount Ginini

IDN60801

Issued at 4:05 pm EST Monday 28 July 2014 (issued every 30 minutes, with the page automatically refreshed every 10 minutes)

About weather observations | Map of weather stations | Latest weather observations for NSW | Other Formats
Station Details ID: 070349 Name: MOUNT GININI AWS Lat: -35.53 Lon: 148.77 Height: 1760.0 m
Data from the previous 72 hours. | See also: Recent months at Mount Ginini
Date/Time
EST
Temp
°C
App
Temp
°C
Dew
Point
Rel
Hum
%
Delta-T
°C
Wind Press
QNH
hPa
Press
MSL
hPa
Rain
since 9 am
mm
Dir
 
Spd
km/h
Gust
km/h
Spd
kts
Gust
kts
28/04:00pm 0.8 -5.3 0.2 96 0.2 W 22 44 12 24 - - 0.0
28/03:39pm 1.1 -6.1 0.5 96 0.3 W 28 50 15 27 - - 0.0
28/03:30pm 1.2 -4.9 0.6 96 0.3 W 22 39 12 21 - - 0.0
28/03:00pm 1.2 -4.3 0.8 97 0.2 W 19 37 10 20 - - 0.0
28/02:30pm 1.2 -4.8 0.8 97 0.2 W 22 41 12 22 - - 0.0
28/02:00pm 1.0 -4.5 0.6 97 0.2 W 19 43 10 23 - - 0.0
28/01:30pm 1.0 -4.7 0.6 97 0.2 W 20 39 11 21 - - 0.0
28/01:00pm 0.9 -4.8 0.5 97 0.2 W 20 37 11 20 - - 0.0
28/12:30pm 1.2 -4.9 0.6 96 0.3 W 22 41 12 22 - - 0.0
28/12:00pm 0.9 -5.2 0.3 96 0.2 W 22 41 12 22 - - 0.0
28/11:30am 1.0 -5.1 0.4 96 0.2 W 22 37 12 20 - - 0.0
28/11:00am 1.0 -4.7 0.3 95 0.3 WSW 20 39 11 21 - - 0.0
28/10:30am 1.0 -5.1 0.3 95 0.3 WSW 22 48 12 26 - - 0.0
28/10:00am 0.8 -4.4 0.4 97 0.2 WSW 17 37 9 20 - - 0.0
28/09:30am 0.4 -5.8 0.0 97 0.2 WSW 22 39 12 21 - - 0.0
28/09:00am 0.1 -5.7 -0.3 97 0.2 WSW 20 41 11 22 - - 0.0
28/08:30am -0.3 -6.9 -0.7 97 0.1 SW 24 46 13 25 - - 0.0
28/08:00am -0.5 -6.4 -0.9 97 0.1 SW 20 37 11 20 - - 0.0
28/07:36am -0.6 -8.0 -1.0 97 0.1 SW 28 50 15 27 - - 0.0
28/07:30am -0.7 -7.4 -1.1 97 0.1 SW 24 39 13 21 - - 0.0
28/07:00am -0.7 -8.2 -1.1 97 0.1 SW 28 52 15 28 - - 0.0
28/06:30am -0.8 -8.6 -1.1 98 0.1 SW 30 52 16 28 - - 0.0
28/06:03am -0.9 -8.4 -1.2 98 0.1 SW 28 54 15 29 - - 0.0
28/06:00am -1.0 -8.1 -1.3 98 0.1 SW 26 43 14 23 - - 0.0
28/05:30am -1.2 -8.7 -1.5 98 0.1 SW 28 52 15 28 - - 0.0
28/05:00am -1.2 -8.7 -1.5 98 0.1 SW 28 48 15 26 - - 0.0
28/04:39am -1.5 -9.1 -1.8 98 0.0 SW 28 48 15 26 - - 0.0
28/04:30am -1.6 -9.2 -1.9 98 0.0 SW 28 44 15 24 - - 0.0
28/04:00am -1.8 -9.4 -2.2 97 0.1 SW 28 52 15 28 - - 0.0
28/03:31am -2.0 -9.6 -2.4 97 0.1 SW 28 48 15 26 - - 0.0
28/03:30am -2.0 -9.6 -2.4 97 0.1 SW 28 43 15 23 - - 0.0
28/03:14am -2.0 -9.6 -2.4 97 0.1 SW 28 50 15 27 - - 0.0
28/03:00am -2.1 -9.0 -2.6 96 0.1 SW 24 41 13 22 - - 0.0
28/02:30am -2.5 -9.1 -3.2 95 0.1 SW 22 39 12 21 - - 0.0
28/02:00am -1.5 -8.7 -5.0 77 1.2 SW 24 37 13 20 - - 0.0
28/01:30am -1.4 -7.8 -4.7 78 1.1 SW 20 32 11 17 - - 0.0
28/01:00am -1.0 -7.8 -5.4 72 1.5 SW 22 33 12 18 - - 0.0
28/12:30am -0.5 -8.0 -1.3 94 0.3 SW 28 39 15 21 - - 0.0
28/12:00am -1.6 -8.8 -2.0 97 0.1 SW 26 43 14 23 - - 0.0
 
Date/Time
EST
Temp
°C
App
Temp
°C
Dew
Point
Rel
Hum
%
Delta-T
°C
Wind Press
QNH
hPa
Press
MSL
hPa
Rain
since 9 am
mm
Dir
 
Spd
km/h
Gust
km/h
Spd
kts
Gust
kts
27/11:30pm -1.8 -7.9 -2.1 98 0.0 SSW 20 30 11 16 - - 0.0
27/11:00pm -1.4 -8.2 -1.7 98 0.0 SSW 24 35 13 19 - - 0.0
27/10:30pm -1.2 -7.2 -1.5 98 0.1 SW 20 30 11 16 - - 0.0
27/10:00pm -1.1 -7.9 -1.5 97 0.1 SW 24 32 13 17 - - 0.0
27/09:30pm -0.9 -7.2 -1.3 97 0.1 WSW 22 35 12 19 - - 0.0
27/09:00pm -0.7 -6.7 -1.4 95 0.2 WSW 20 32 11 17 - - 0.0
27/08:30pm 0.1 -6.3 -1.8 87 0.7 WSW 22 33 12 18 - - 0.0
27/08:00pm 0.7 -5.5 -3.0 76 1.4 WSW 20 33 11 18 - - 0.0
27/07:30pm 1.5 -4.5 -1.4 81 1.2 WSW 20 33 11 18 - - 0.0
27/07:00pm -0.4 -5.7 -0.8 97 0.1 WSW 17 24 9 13 - - 0.0
27/06:30pm -0.3 -6.0 -0.7 97 0.1 WSW 19 28 10 15 - - 0.0
27/06:00pm -0.1 -6.7 -0.5 97 0.2 SW 24 37 13 20 - - 0.0
27/05:30pm 0.3 -5.3 -0.3 96 0.2 SW 19 30 10 16 - - 0.0
27/05:00pm 0.8 -4.4 0.1 95 0.3 WSW 17 24 9 13 - - 0.0
27/04:30pm 2.0 -2.3 1.1 94 0.4 WSW 13 26 7 14 - - 0.0
27/04:00pm 2.6 -2.7 1.7 94 0.4 WSW 19 33 10 18 - - 0.0
27/03:30pm 3.1 -1.0 2.1 93 0.4 WSW 13 26 7 14 - - 0.0
27/03:00pm 3.6 -0.9 2.4 92 0.5 WSW 15 24 8 13 - - 0.0
27/02:30pm 3.6 -1.3 1.8 88 0.8 WSW 17 28 9 15 - - 0.0
27/02:00pm 3.7 -0.8 2.4 91 0.6 W 15 26 8 14 - - 0.0
27/01:30pm 3.7 -0.7 2.8 94 0.4 W 15 26 8 14 - - 0.0
27/01:00pm 3.2 -1.2 2.5 95 0.3 WSW 15 28 8 15 - - 0.0
27/12:30pm 3.2 -1.2 2.6 96 0.3 WSW 15 24 8 13 - - 0.0
27/12:00pm 3.3 -1.1 2.9 97 0.2 W 15 24 8 13 - - 0.0
27/11:30am 3.1 -0.1 2.8 98 0.1 W 9 15 5 8 - - 0.0
27/11:00am 2.0 -1.8 1.7 98 0.1 WSW 11 19 6 10 - - 0.0
27/10:30am 1.0 -3.3 0.7 98 0.1 SW 13 19 7 10 - - 0.0
27/10:00am 0.4 -5.2 0.0 97 0.2 SW 19 28 10 15 - - 0.0
27/09:30am -0.2 -6.1 -0.6 97 0.1 SW 20 28 11 15 - - 0.0
27/09:00am -0.6 -6.9 -1.0 97 0.1 SSW 22 32 12 17 - - 1.2
27/08:30am -0.6 -7.3 -1.0 97 0.1 SSW 24 33 13 18 - - 1.2
27/08:00am -0.8 -8.3 -1.2 97 0.1 SSW 28 41 15 22 - - 1.2
27/07:30am -0.6 -7.7 -1.0 97 0.1 SSW 26 35 14 19 - - 1.2
27/07:00am -0.7 -7.4 -1.1 97 0.1 SW 24 35 13 19 - - 1.2
27/06:30am -0.7 -7.4 -1.1 97 0.1 SSW 24 37 13 20 - - 1.2
27/06:00am -0.6 -8.0 -1.0 97 0.1 SW 28 43 15 23 - - 1.2
27/05:30am -0.4 -7.1 -0.8 97 0.1 SW 24 35 13 19 - - 1.2
27/05:00am -0.3 -6.6 -0.7 97 0.1 SW 22 37 12 20 - - 1.2
27/04:30am -0.2 -6.4 -0.6 97 0.1 SW 22 39 12 21 - - 1.2
27/04:00am -0.2 -7.6 -0.6 97 0.1 SW 28 39 15 21 - - 1.2
27/03:48am -0.3 -7.7 -0.7 97 0.1 SW 28 46 15 25 - - 1.2
27/03:30am -0.1 -6.0 -0.5 97 0.2 SW 20 37 11 20 - - 1.2
27/03:00am -0.1 -5.8 -0.4 98 0.1 SW 19 35 10 19 - - 1.2
27/02:30am -0.1 -5.9 -0.4 98 0.1 SW 20 37 11 20 - - 1.2
27/02:00am -0.2 -5.9 -0.5 98 0.1 SW 19 33 10 18 - - 1.2
27/01:30am -0.3 -4.5 -0.6 98 0.1 SW 11 19 6 10 - - 1.2
27/01:00am -0.1 -4.6 -0.4 98 0.1 SW 13 28 7 15 - - 1.2
27/12:30am 0.0 -5.6 -0.3 98 0.1 SSW 19 24 10 13 - - 1.2
27/12:00am 0.0 -4.5 -0.3 98 0.1 WSW 13 24 7 13 - - 1.2
 
Date/Time
EST
Temp
°C
App
Temp
°C
Dew
Point
Rel
Hum
%
Delta-T
°C
Wind Press
QNH
hPa
Press
MSL
hPa
Rain
since 9 am
mm
Dir
 
Spd
km/h
Gust
km/h
Spd
kts
Gust
kts
26/11:30pm 0.0 -5.3 -0.3 98 0.1 SW 17 32 9 17 - - 1.2
26/11:00pm -0.1 -5.4 -0.4 98 0.1 SW 17 28 9 15 - - 1.2
26/10:30pm -0.1 -5.9 -0.4 98 0.1 SW 20 32 11 17 - - 1.2
26/10:00pm -0.1 -5.8 -0.4 98 0.1 SW 19 30 10 16 - - 1.2
26/09:30pm -0.1 -5.4 -0.4 98 0.1 SW 17 28 9 15 - - 1.2
26/09:00pm -0.1 -5.4 -0.4 98 0.1 SW 17 32 9 17 - - 1.2
26/08:30pm -0.2 -6.1 -0.5 98 0.1 SW 20 33 11 18 - - 1.2
26/08:00pm -0.1 -5.0 -0.4 98 0.1 SW 15 28 8 15 - - 1.2
26/07:30pm -0.1 -4.6 -0.4 98 0.1 WSW 13 26 7 14 - - 1.2
26/07:00pm -0.2 -5.9 -0.5 98 0.1 SW 19 32 10 17 - - 1.2
26/06:30pm -0.1 -5.9 -0.4 98 0.1 WSW 20 32 11 17 - - 1.2
26/06:00pm 0.1 -6.1 -0.2 98 0.1 SW 22 37 12 20 - - 1.2
26/05:30pm 0.1 -5.7 -0.2 98 0.1 SW 20 33 11 18 - - 1.2
26/05:00pm 0.0 -5.8 -0.3 98 0.1 SW 20 37 11 20 - - 1.2
26/04:30pm 0.2 -6.0 -0.1 98 0.1 SW 22 35 12 19 - - 1.2
26/04:00pm 0.5 -5.1 0.2 98 0.1 SW 19 33 10 18 - - 1.2
26/03:30pm 0.8 -5.3 0.5 98 0.1 SW 22 37 12 20 - - 1.2
26/03:00pm 0.5 -5.6 0.2 98 0.1 SW 22 39 12 21 - - 1.0
26/02:30pm 0.2 -6.7 -0.1 98 0.1 SW 26 44 14 24 - - 1.0
26/02:00pm 0.4 -5.7 0.1 98 0.1 SW 22 39 12 21 - - 0.4
26/01:30pm 0.4 -5.2 0.1 98 0.1 SW 19 32 10 17 - - 0.4
26/01:00pm 1.2 -3.9 0.9 98 0.1 W 17 33 9 18 - - 0.0
26/12:30pm 0.8 -4.4 0.4 97 0.2 WSW 17 28 9 15 - - 0.0
26/12:00pm 1.5 -2.1 0.9 96 0.3 WNW 9 19 5 10 - - 0.0
26/11:30am 2.1 -1.8 1.2 94 0.4 WSW 11 22 6 12 - - 0.0
26/11:00am 2.9 -2.0 2.0 94 0.4 W 17 32 9 17 - - 0.0
26/10:30am 2.3 -2.6 1.9 97 0.2 WSW 17 32 9 17 - - 0.0
26/10:00am 2.0 -3.3 1.7 98 0.1 W 19 35 10 19 - - 0.0
26/09:30am 1.5 -3.9 1.2 98 0.1 W 19 39 10 21 - - 0.0
26/09:00am 1.1 -4.4 0.8 98 0.1 W 19 32 10 17 - - 0.0
26/08:30am 0.9 -3.8 0.6 98 0.1 WSW 15 28 8 15 - - 0.0
26/08:00am 0.5 -4.3 0.2 98 0.1 WSW 15 26 8 14 - - 0.0
26/07:30am 0.1 -4.8 -0.2 98 0.1 W 15 22 8 12 - - 0.0
26/07:00am 0.1 -4.4 -0.2 98 0.1 W 13 26 7 14 - - 0.0
26/06:30am 0.4 -4.0 0.1 98 0.1 W 13 24 7 13 - - 0.0
26/06:00am 0.7 -3.3 0.4 98 0.1 W 11 20 6 11 - - 0.0
26/05:30am 0.5 -3.9 0.2 98 0.1 W 13 26 7 14 - - 0.0
26/05:00am 0.6 -4.2 0.3 98 0.1 W 15 30 8 16 - - 0.0
26/04:30am 0.6 -4.9 0.3 98 0.1 WSW 19 37 10 20 - - 0.0
26/04:00am 0.7 -4.1 0.4 98 0.1 WSW 15 30 8 16 - - 0.0
26/03:30am 0.7 -4.8 0.4 98 0.1 WSW 19 32 10 17 - - 0.0
26/03:00am 0.9 -4.6 0.6 98 0.1 W 19 37 10 20 - - 0.0
26/02:30am 1.0 -4.7 0.7 98 0.1 W 20 33 11 18 - - 0.0
26/02:00am 0.9 -5.2 0.6 98 0.1 W 22 41 12 22 - - 0.0
26/01:30am 1.1 -4.9 0.8 98 0.1 W 22 41 12 22 - - 0.0
26/01:00am 1.2 -4.4 0.9 98 0.1 W 20 37 11 20 - - 0.0
26/12:30am 1.3 -4.3 1.0 98 0.1 W 20 33 11 18 - - 0.0
26/12:00am 1.2 -4.4 0.9 98 0.1 W 20 35 11 19 - - 0.0
 
Date/Time
EST
Temp
°C
App
Temp
°C
Dew
Point
Rel
Hum
%
Delta-T
°C
Wind Press
QNH
hPa
Press
MSL
hPa
Rain
since 9 am
mm
Dir
 
Spd
km/h
Gust
km/h
Spd
kts
Gust
kts
25/11:30pm 1.1 -4.9 0.8 98 0.1 W 22 41 12 22 - - 0.0
25/11:00pm 1.1 -4.9 0.8 98 0.1 W 22 44 12 24 - - 0.0
25/10:30pm 1.0 -5.4 0.7 98 0.1 W 24 41 13 22 - - 0.0
25/10:00pm 0.9 -4.8 0.6 98 0.1 W 20 41 11 22 - - 0.0
25/09:30pm 0.9 -5.6 0.6 98 0.1 W 24 43 13 23 - - 0.0
25/09:00pm 0.9 -4.8 0.6 98 0.1 W 20 35 11 19 - - 0.0
25/08:30pm 1.1 -4.4 0.8 98 0.1 W 19 35 10 19 - - 0.0
25/08:00pm 1.3 -3.8 1.0 98 0.1 W 17 30 9 16 - - 0.0
25/07:30pm 1.3 -3.8 1.0 98 0.1 W 17 32 9 17 - - 0.0
25/07:00pm 1.3 -3.4 1.0 98 0.1 W 15 28 8 15 - - 0.0
25/06:30pm 1.5 -3.5 1.2 98 0.1 W 17 28 9 15 - - 0.0
25/06:00pm 1.7 -3.3 1.4 98 0.1 W 17 33 9 18 - - 0.0
25/05:30pm 1.8 -3.2 1.4 97 0.2 W 17 26 9 14 - - 0.0
25/05:00pm 2.3 -3.0 1.7 96 0.3 W 19 33 10 18 - - 0.0
25/04:30pm 2.5 -3.0 1.8 95 0.3 WNW 20 33 11 18 - - 0.0

Other Formats:

Comma delimited format used in spreadsheet applications
http://www.bom.gov.au/fwo/IDN60801/IDN60801.95925.axf

JavaScript Object Notation format (JSON) in row-major order
http://www.bom.gov.au/fwo/IDN60801/IDN60801.95925.json